VYMD/MDL METAR and TAF weather

Enter ICAO airport designator
Station Type Date Time Source
VYMD METAR 2022/01/23 10:30 UTC NOAA

VYMD 231030Z 01002KT 7000 FEW020 28/13 Q1008 NOSIG


Station Type Date Time Source
VYMD Decoded METAR 2022/01/23 10:30 UTC NOAA

Station name not available
Jan 23, 2022 - 05:30 AM EST / 2022.01.23 1030 UTC
Wind: from the N (010 degrees) at 2 MPH (2 KT):0
Visibility: 4 mile(s):0
Sky conditions: mostly clear
Temperature: 82 F (28 C)
Dew Point: 55 F (13 C)
Relative Humidity: 39%
Pressure (altimeter): 29.77 in. Hg (1008 hPa)
ob: VYMD 231030Z 01002KT 7000 FEW020 28/13 Q1008 NOSIG
cycle: 10

Station Type Date Time Source
VYMD TAF 2022/01/23 06:00 UTC NOAA

TAF VYMD 230500Z 2306/2406 34003KT 7000 FEW025
TEMPO 2306/2312 01005KT 7000 SCT020

Example: see airport list